createdAt,value
2022-12-25T00:09:13.730Z,11.5
2022-12-25T00:24:23.128Z,12.7
2022-12-25T00:39:32.393Z,11
2022-12-25T00:54:41.904Z,11
2022-12-25T01:09:51.712Z,12.5
2022-12-25T01:25:01.135Z,12.5
2022-12-25T01:40:11.121Z,10.6
2022-12-25T01:55:20.972Z,9.8
2022-12-25T02:10:30.521Z,9.2
2022-12-25T02:25:40.409Z,9.6
2022-12-25T02:40:49.548Z,9.6
2022-12-25T02:55:59.944Z,8.2
2022-12-25T03:11:09.818Z,10.9
2022-12-25T03:26:19.659Z,7.5
2022-12-25T03:41:29.341Z,8.5
2022-12-25T03:56:38.522Z,8.3
2022-12-25T04:11:47.836Z,9.5
2022-12-25T04:26:57.453Z,8.5
2022-12-25T04:42:06.534Z,8.6
2022-12-25T04:57:16.292Z,8.5
2022-12-25T05:12:25.929Z,8.3
2022-12-25T05:27:58.807Z,9.8
2022-12-25T05:43:08.658Z,8.3
2022-12-25T05:58:18.361Z,8.2
2022-12-25T06:13:27.878Z,8.3
2022-12-25T06:28:36.759Z,8.3
2022-12-25T06:43:46.516Z,8.6
2022-12-25T06:58:55.870Z,7.7
2022-12-25T07:14:05.188Z,7.4
2022-12-25T07:29:14.475Z,7.8
2022-12-25T07:44:24.107Z,7.5
2022-12-25T07:59:33.671Z,7.4
2022-12-25T08:14:43.475Z,7.8
2022-12-25T08:29:53.352Z,7.8
2022-12-25T08:45:04.100Z,8.4
2022-12-25T09:00:14.152Z,7.9
2022-12-25T09:15:24.190Z,9.1
2022-12-25T09:30:34.171Z,9.1
2022-12-25T09:45:44.380Z,9.6
2022-12-25T10:00:54.200Z,7.9
2022-12-25T10:16:03.865Z,8.1
2022-12-25T10:31:13.934Z,10.1
2022-12-25T10:46:23.976Z,9.2
2022-12-25T11:01:34.384Z,9.6
2022-12-25T11:17:10.296Z,12.7
2022-12-25T11:32:20.294Z,11.2
2022-12-25T11:47:29.869Z,9.7
2022-12-25T12:02:40.330Z,8.7
2022-12-25T12:17:51.459Z,10.1
2022-12-25T12:33:02.283Z,9.9
2022-12-25T12:48:12.138Z,9.6
2022-12-25T13:03:22.313Z,10
2022-12-25T13:18:32.294Z,11.6
2022-12-25T13:33:41.925Z,10.3
2022-12-25T13:48:51.142Z,10.6
2022-12-25T14:04:01.653Z,10.3
2022-12-25T14:19:11.529Z,9.4
2022-12-25T14:34:20.455Z,8.8
2022-12-25T14:49:30.172Z,9.1
2022-12-25T15:04:39.468Z,10.9
2022-12-25T15:19:48.955Z,9.6
2022-12-25T15:35:01.687Z,11.2
2022-12-25T15:50:11.371Z,10.7
2022-12-25T16:05:20.643Z,10.3
2022-12-25T16:20:30.929Z,10.4
2022-12-25T16:35:40.533Z,10
2022-12-25T16:50:50.045Z,9.5
2022-12-25T17:06:00.283Z,11.9
2022-12-25T17:21:09.981Z,10.8
2022-12-25T17:36:19.846Z,10.2
2022-12-25T17:51:29.972Z,11.8
2022-12-25T18:06:39.799Z,12.5
2022-12-25T18:21:49.166Z,12.1
2022-12-25T18:37:02.844Z,13.4
2022-12-25T18:52:52.029Z,13
2022-12-25T19:08:02.559Z,12.1
2022-12-25T19:23:12.451Z,13.4
2022-12-25T19:38:22.003Z,13.4
2022-12-25T19:53:32.167Z,13.7
2022-12-25T20:08:41.357Z,13.6
2022-12-25T20:23:51.088Z,13.4
2022-12-25T20:39:02.769Z,14.6
2022-12-25T20:54:12.741Z,13.7
2022-12-25T21:09:22.221Z,11.1
2022-12-25T21:24:32.051Z,13.3
2022-12-25T21:39:42.030Z,10.7
2022-12-25T21:54:51.816Z,13.1
2022-12-25T22:10:02.424Z,11.3
2022-12-25T22:25:12.400Z,14.8
2022-12-25T22:40:22.532Z,13.5
2022-12-25T22:55:32.352Z,11.1
2022-12-25T23:10:42.416Z,6.1
2022-12-25T23:25:51.702Z,5.5
2022-12-25T23:41:01.858Z,5.4
2022-12-25T23:56:11.268Z,6.8
